createdAt,value
2019-05-18T00:00:48.714Z,6.00
2019-05-18T00:03:18.175Z,5.97
2019-05-18T00:05:47.354Z,6.13
2019-05-18T00:08:16.473Z,6.23
2019-05-18T00:10:45.670Z,5.70
2019-05-18T00:13:14.851Z,6.23
2019-05-18T00:15:43.995Z,6.43
2019-05-18T00:18:13.172Z,6.60
2019-05-18T00:20:42.382Z,7.17
2019-05-18T00:23:11.586Z,6.37
2019-05-18T00:25:40.766Z,6.80
2019-05-18T00:28:09.970Z,6.83
2019-05-18T00:30:39.167Z,7.23
2019-05-18T00:33:08.354Z,7.07
2019-05-18T00:35:37.551Z,7.17
2019-05-18T00:38:06.750Z,7.30
2019-05-18T00:40:36.114Z,7.33
2019-05-18T00:43:05.307Z,7.13
2019-05-18T00:45:34.510Z,7.03
2019-05-18T00:48:03.746Z,7.20
2019-05-18T00:50:32.926Z,7.60
2019-05-18T00:53:02.047Z,7.43
2019-05-18T00:55:31.270Z,7.77
2019-05-18T00:58:00.488Z,8.27
2019-05-18T01:00:30.083Z,7.47
2019-05-18T01:02:59.574Z,7.57
2019-05-18T01:05:28.778Z,7.50
2019-05-18T01:07:57.991Z,7.23
2019-05-18T01:10:27.190Z,8.00
2019-05-18T01:12:56.367Z,7.63
2019-05-18T01:15:25.562Z,7.40
2019-05-18T01:17:57.622Z,7.63
2019-05-18T01:20:25.630Z,7.70
2019-05-18T01:22:54.883Z,7.03
2019-05-18T01:25:24.070Z,7.90
2019-05-18T01:27:53.282Z,7.20
2019-05-18T01:30:22.520Z,7.10
2019-05-18T01:32:51.682Z,7.63
2019-05-18T01:35:20.986Z,7.87
2019-05-18T01:37:50.174Z,7.70
2019-05-18T01:40:38.518Z,7.87
2019-05-18T01:43:07.627Z,7.90
2019-05-18T01:45:36.882Z,7.53
2019-05-18T01:48:14.226Z,8.13
2019-05-18T01:50:36.903Z,8.10
2019-05-18T01:53:06.070Z,8.33
2019-05-18T01:55:35.246Z,7.40
2019-05-18T01:58:04.433Z,8.60
2019-05-18T02:00:33.610Z,7.57
2019-05-18T02:03:02.804Z,7.47
2019-05-18T02:05:31.977Z,7.50
2019-05-18T02:08:01.170Z,7.40
2019-05-18T02:10:30.362Z,7.47
2019-05-18T02:12:59.550Z,7.63
2019-05-18T02:15:28.742Z,7.20
2019-05-18T02:17:57.879Z,7.27
2019-05-18T02:20:27.098Z,7.30
2019-05-18T02:22:56.274Z,6.83
2019-05-18T02:25:25.470Z,6.43
2019-05-18T02:27:54.676Z,7.10
2019-05-18T02:30:23.891Z,7.30
2019-05-18T02:32:53.071Z,6.80
2019-05-18T02:35:22.258Z,6.87
2019-05-18T02:37:51.463Z,7.03
2019-05-18T02:40:20.648Z,7.13
2019-05-18T02:42:49.837Z,7.27
2019-05-18T02:45:19.173Z,6.80
2019-05-18T02:47:48.370Z,6.93
2019-05-18T02:50:17.714Z,6.63
2019-05-18T02:52:46.907Z,6.70
2019-05-18T02:55:16.103Z,6.37
2019-05-18T02:57:45.297Z,6.63
2019-05-18T03:00:14.503Z,6.13
2019-05-18T03:02:43.683Z,6.90
2019-05-18T03:05:12.923Z,6.67
2019-05-18T03:07:42.122Z,6.67
2019-05-18T03:10:11.319Z,6.70
2019-05-18T03:12:40.522Z,5.80
2019-05-18T03:15:09.695Z,6.83
2019-05-18T03:17:38.897Z,6.23
2019-05-18T03:20:08.143Z,5.97
2019-05-18T03:22:37.323Z,6.50
2019-05-18T03:25:06.594Z,6.03
2019-05-18T03:27:35.786Z,5.77
2019-05-18T03:30:05.047Z,5.40
2019-05-18T03:32:34.255Z,5.10
2019-05-18T03:35:03.455Z,5.57
2019-05-18T03:37:32.646Z,6.03
2019-05-18T03:40:01.828Z,5.90
2019-05-18T03:42:31.038Z,5.63
2019-05-18T03:45:00.239Z,5.57
2019-05-18T03:47:29.445Z,5.53
2019-05-18T03:49:58.739Z,5.73
2019-05-18T03:52:27.930Z,6.53
2019-05-18T03:54:57.102Z,5.80
2019-05-18T03:57:26.303Z,6.10
2019-05-18T03:59:55.490Z,5.90
2019-05-18T04:02:24.711Z,6.13
2019-05-18T04:04:53.898Z,5.80
2019-05-18T04:07:23.109Z,5.90
2019-05-18T04:09:52.777Z,5.87
2019-05-18T04:12:21.962Z,6.33
2019-05-18T04:14:51.159Z,6.17
2019-05-18T04:17:20.353Z,6.20
2019-05-18T04:19:49.563Z,6.20
2019-05-18T04:22:18.887Z,6.20
2019-05-18T04:24:48.099Z,6.63
2019-05-18T04:27:17.314Z,5.97
2019-05-18T04:29:46.483Z,6.00
2019-05-18T04:32:15.688Z,6.07
2019-05-18T04:34:44.858Z,5.87
2019-05-18T04:37:14.002Z,6.17
2019-05-18T04:39:43.193Z,6.00
2019-05-18T04:42:12.403Z,5.77
2019-05-18T04:44:41.573Z,6.90
2019-05-18T04:47:10.755Z,6.20
2019-05-18T04:49:39.935Z,6.20
2019-05-18T04:52:09.295Z,6.00
2019-05-18T04:54:38.475Z,6.40
2019-05-18T04:57:07.687Z,5.50
2019-05-18T04:59:36.888Z,5.37
2019-05-18T05:02:06.162Z,5.77
2019-05-18T05:04:35.332Z,5.23
2019-05-18T05:07:04.511Z,5.30
2019-05-18T05:09:33.732Z,5.73
2019-05-18T05:12:02.931Z,5.70
2019-05-18T05:14:32.109Z,6.13
2019-05-18T05:17:01.207Z,5.90
2019-05-18T05:19:30.399Z,5.70
2019-05-18T05:21:59.585Z,5.97
2019-05-18T05:24:28.692Z,6.03
2019-05-18T05:26:57.913Z,5.97
2019-05-18T05:29:27.087Z,5.90
2019-05-18T05:31:56.261Z,5.87
2019-05-18T05:34:25.445Z,5.20
2019-05-18T05:37:00.822Z,5.80
2019-05-18T05:39:30.036Z,5.80
2019-05-18T05:41:59.198Z,5.30
2019-05-18T05:44:28.305Z,5.00
2019-05-18T05:46:57.500Z,5.10
2019-05-18T05:49:26.814Z,4.87
2019-05-18T05:51:55.950Z,4.70
2019-05-18T05:54:25.117Z,4.70
2019-05-18T05:56:54.298Z,4.27
2019-05-18T05:59:23.475Z,4.60
2019-05-18T06:01:52.639Z,5.00
2019-05-18T06:04:21.818Z,4.80
2019-05-18T06:06:51.002Z,4.90
2019-05-18T06:09:20.155Z,6.00
2019-05-18T06:11:49.310Z,4.43
2019-05-18T06:14:18.650Z,4.13
2019-05-18T06:16:47.822Z,4.23
2019-05-18T06:19:17.055Z,4.40
2019-05-18T06:21:46.293Z,3.73
2019-05-18T06:24:15.462Z,3.50
2019-05-18T06:26:44.733Z,3.47
2019-05-18T06:29:14.030Z,3.37
2019-05-18T06:31:43.187Z,3.83
2019-05-18T06:34:12.306Z,3.37
2019-05-18T06:36:41.461Z,3.57
2019-05-18T06:39:10.642Z,4.00
2019-05-18T06:41:39.761Z,3.40
2019-05-18T06:44:08.878Z,3.87
2019-05-18T06:46:37.983Z,4.13
2019-05-18T06:49:07.165Z,3.93
2019-05-18T06:51:36.344Z,3.73
2019-05-18T06:54:05.518Z,3.87
2019-05-18T06:56:34.686Z,3.97
2019-05-18T06:59:03.785Z,4.10
2019-05-18T07:01:32.879Z,4.20
2019-05-18T07:04:02.071Z,3.80
2019-05-18T07:06:31.240Z,4.17
2019-05-18T07:09:00.415Z,4.10
2019-05-18T07:11:29.610Z,4.30
2019-05-18T07:13:58.698Z,4.13
2019-05-18T07:16:27.813Z,4.40
2019-05-18T07:18:56.977Z,4.27
2019-05-18T07:21:26.141Z,4.13
2019-05-18T07:23:55.256Z,4.17
2019-05-18T07:26:24.414Z,4.10
2019-05-18T07:28:53.600Z,4.50
2019-05-18T07:31:22.773Z,4.20
2019-05-18T07:33:51.945Z,3.87
2019-05-18T07:36:21.159Z,4.70
2019-05-18T07:38:50.325Z,4.90
2019-05-18T07:41:19.462Z,4.40
2019-05-18T07:43:48.670Z,4.30
2019-05-18T07:46:17.978Z,4.37
2019-05-18T07:48:47.147Z,4.70
2019-05-18T07:51:16.479Z,4.00
2019-05-18T07:53:45.630Z,4.43
2019-05-18T07:56:14.802Z,4.47
2019-05-18T07:58:44.107Z,4.00
2019-05-18T08:01:13.278Z,4.60
2019-05-18T08:03:42.370Z,4.57
2019-05-18T08:06:11.486Z,4.20
2019-05-18T08:08:40.650Z,4.57
2019-05-18T08:11:09.762Z,4.27
2019-05-18T08:13:38.939Z,4.30
2019-05-18T08:16:08.047Z,3.97
2019-05-18T08:18:37.222Z,4.27
2019-05-18T08:21:06.419Z,4.10
2019-05-18T08:23:35.618Z,3.60
2019-05-18T08:26:04.803Z,3.80
2019-05-18T08:28:33.975Z,3.70
2019-05-18T08:31:03.174Z,4.00
2019-05-18T08:33:32.261Z,3.70
2019-05-18T08:36:01.361Z,4.00
2019-05-18T08:38:30.466Z,4.27
2019-05-18T08:40:59.634Z,4.10
2019-05-18T08:43:28.815Z,3.80
2019-05-18T08:45:57.974Z,4.10
2019-05-18T08:48:27.146Z,3.43
2019-05-18T08:50:56.322Z,3.87
2019-05-18T08:53:25.490Z,3.50
2019-05-18T08:55:54.629Z,3.27
2019-05-18T08:58:23.813Z,4.07
2019-05-18T09:00:52.918Z,3.40
2019-05-18T09:03:22.108Z,3.77
2019-05-18T09:05:51.274Z,3.80
2019-05-18T09:08:20.484Z,3.60
2019-05-18T09:10:49.654Z,3.60
2019-05-18T09:13:19.241Z,3.70
2019-05-18T09:15:48.384Z,3.60
2019-05-18T09:18:17.554Z,3.30
2019-05-18T09:20:46.646Z,3.57
2019-05-18T09:23:15.850Z,3.60
2019-05-18T09:25:45.043Z,3.53
2019-05-18T09:28:14.233Z,3.67
2019-05-18T09:30:43.462Z,3.70
2019-05-18T09:33:12.614Z,3.87
2019-05-18T09:35:41.803Z,3.77
2019-05-18T09:38:11.098Z,3.60
2019-05-18T09:40:40.274Z,3.40
2019-05-18T09:43:09.442Z,3.60
2019-05-18T09:45:38.629Z,3.77
2019-05-18T09:48:07.877Z,3.37
2019-05-18T09:50:37.038Z,3.50
2019-05-18T09:53:06.192Z,3.20
2019-05-18T09:55:35.357Z,3.40
2019-05-18T09:58:04.583Z,3.40
2019-05-18T10:00:38.664Z,3.83
2019-05-18T10:03:04.599Z,4.07
2019-05-18T10:05:33.787Z,3.80
2019-05-18T10:08:03.040Z,3.50
2019-05-18T10:10:33.758Z,3.90
2019-05-18T10:13:03.215Z,4.17
2019-05-18T10:15:32.370Z,4.17
2019-05-18T10:18:01.538Z,4.43
2019-05-18T10:20:30.757Z,4.20
2019-05-18T10:23:12.265Z,4.87
2019-05-18T10:25:30.802Z,4.53
2019-05-18T10:28:02.384Z,4.80
2019-05-18T10:30:31.534Z,5.07
2019-05-18T10:33:00.734Z,5.20
2019-05-18T10:35:30.181Z,5.27
2019-05-18T10:37:59.288Z,5.80
2019-05-18T10:40:28.477Z,5.23
2019-05-18T10:42:57.661Z,5.10
2019-05-18T10:45:26.763Z,5.23
2019-05-18T10:47:55.988Z,4.77
2019-05-18T10:50:25.139Z,5.10
2019-05-18T10:52:54.311Z,5.27
2019-05-18T10:55:23.500Z,5.30
2019-05-18T10:57:52.673Z,5.50
2019-05-18T11:00:21.882Z,4.60
2019-05-18T11:02:51.067Z,4.73
2019-05-18T11:05:20.225Z,4.63
2019-05-18T11:07:49.335Z,4.63
2019-05-18T11:10:18.714Z,4.83
2019-05-18T11:12:47.869Z,5.33
2019-05-18T11:15:17.374Z,4.63
2019-05-18T11:17:46.522Z,4.17
2019-05-18T11:20:16.537Z,4.17
2019-05-18T11:22:45.694Z,3.97
2019-05-18T11:25:14.807Z,5.00
2019-05-18T11:27:44.271Z,4.60
2019-05-18T11:30:13.463Z,4.23
2019-05-18T11:32:42.646Z,5.00
2019-05-18T11:35:11.762Z,4.47
2019-05-18T11:37:40.922Z,5.07
2019-05-18T11:40:10.217Z,5.47
2019-05-18T11:42:39.378Z,5.33
2019-05-18T11:45:08.620Z,4.67
2019-05-18T11:47:37.822Z,5.43
2019-05-18T11:50:07.300Z,5.33
2019-05-18T11:52:36.488Z,5.30
2019-05-18T11:55:05.777Z,6.73
2019-05-18T11:57:34.906Z,6.40
2019-05-18T12:00:04.183Z,6.73
2019-05-18T12:02:33.409Z,7.83
2019-05-18T12:05:02.576Z,8.40
2019-05-18T12:07:31.772Z,6.20
2019-05-18T12:10:00.973Z,8.10
2019-05-18T12:12:30.155Z,8.63
2019-05-18T12:14:59.403Z,8.20
2019-05-18T12:17:28.562Z,7.87
2019-05-18T12:19:57.750Z,7.80
2019-05-18T12:22:26.963Z,7.53
2019-05-18T12:24:56.198Z,7.60
2019-05-18T12:27:25.455Z,7.20
2019-05-18T12:29:54.670Z,7.00
2019-05-18T12:32:23.878Z,7.53
2019-05-18T12:34:53.048Z,7.27
2019-05-18T12:37:23.155Z,6.40
2019-05-18T12:39:53.344Z,7.17
2019-05-18T12:42:22.538Z,6.60
2019-05-18T12:44:51.727Z,7.30
2019-05-18T12:47:20.962Z,6.60
2019-05-18T12:49:50.226Z,5.83
2019-05-18T12:52:19.536Z,6.80
2019-05-18T12:54:48.781Z,7.20
2019-05-18T12:57:18.142Z,7.43
2019-05-18T12:59:47.336Z,6.97
2019-05-18T13:02:19.640Z,7.13
2019-05-18T13:04:48.833Z,7.23
2019-05-18T13:07:18.237Z,7.80
2019-05-18T13:09:47.397Z,7.77
2019-05-18T13:12:16.565Z,7.40
2019-05-18T13:14:45.758Z,7.90
2019-05-18T13:17:15.033Z,7.87
2019-05-18T13:19:44.207Z,8.60
2019-05-18T13:22:13.385Z,10.43
2019-05-18T13:24:45.257Z,10.07
2019-05-18T13:27:13.413Z,10.70
2019-05-18T13:29:42.545Z,11.27
2019-05-18T13:32:11.718Z,11.13
2019-05-18T13:34:40.939Z,11.63
2019-05-18T13:37:10.147Z,10.57
2019-05-18T13:39:39.324Z,10.83
2019-05-18T13:42:08.490Z,10.50
2019-05-18T13:44:38.256Z,10.13
2019-05-18T13:47:07.525Z,11.27
2019-05-18T13:49:36.722Z,10.57
2019-05-18T13:52:05.837Z,10.03
2019-05-18T13:54:35.109Z,9.17
2019-05-18T13:57:04.287Z,9.43
2019-05-18T13:59:33.450Z,9.43
2019-05-18T14:02:02.570Z,9.60
2019-05-18T14:04:31.766Z,8.83
2019-05-18T14:07:00.954Z,9.63
2019-05-18T14:09:30.038Z,8.87
2019-05-18T14:11:59.201Z,9.93
2019-05-18T14:14:28.317Z,9.37
2019-05-18T14:16:57.567Z,9.13
2019-05-18T14:19:26.830Z,9.43
2019-05-18T14:21:56.051Z,10.07
2019-05-18T14:24:25.258Z,10.70
2019-05-18T14:26:54.427Z,9.60
2019-05-18T14:29:23.674Z,11.10
2019-05-18T14:31:52.882Z,10.40
2019-05-18T14:34:22.054Z,9.97
2019-05-18T14:36:51.215Z,10.33
2019-05-18T14:39:23.097Z,9.73
2019-05-18T14:41:51.224Z,12.13
2019-05-18T14:44:20.419Z,9.57
2019-05-18T14:46:49.617Z,9.33
2019-05-18T14:49:18.847Z,10.00
2019-05-18T14:51:48.106Z,8.30
2019-05-18T14:54:17.286Z,9.47
2019-05-18T14:56:46.477Z,9.60
2019-05-18T14:59:15.594Z,8.70
2019-05-18T15:01:44.727Z,9.00
2019-05-18T15:04:13.901Z,8.73
2019-05-18T15:06:43.082Z,10.00
2019-05-18T15:09:12.265Z,10.40
2019-05-18T15:11:41.446Z,11.33
2019-05-18T15:14:10.558Z,11.80
2019-05-18T15:16:39.734Z,11.20
2019-05-18T15:19:08.930Z,11.97
2019-05-18T15:21:38.102Z,10.87
2019-05-18T15:24:08.829Z,11.43
2019-05-18T15:26:38.134Z,11.07
2019-05-18T15:29:07.614Z,11.40
2019-05-18T15:31:36.854Z,10.87
2019-05-18T15:34:06.024Z,11.73
2019-05-18T15:36:35.307Z,11.60
2019-05-18T15:39:05.698Z,12.40
2019-05-18T15:41:34.798Z,12.20
2019-05-18T15:44:03.999Z,11.73
2019-05-18T15:46:33.198Z,12.10
2019-05-18T15:49:02.487Z,12.37
2019-05-18T15:51:31.702Z,12.70
2019-05-18T15:54:00.854Z,12.43
2019-05-18T15:56:30.022Z,11.67
2019-05-18T15:58:59.214Z,12.97
2019-05-18T16:01:28.334Z,12.50
2019-05-18T16:03:57.544Z,13.30
2019-05-18T16:06:26.739Z,12.80
2019-05-18T16:08:55.946Z,12.90
2019-05-18T16:11:25.125Z,13.30
2019-05-18T16:13:54.334Z,12.93
2019-05-18T16:16:23.499Z,11.57
2019-05-18T16:18:52.698Z,10.70
2019-05-18T16:21:22.183Z,11.67
2019-05-18T16:23:51.475Z,10.70
2019-05-18T16:26:21.903Z,11.20
2019-05-18T16:28:51.463Z,10.67
2019-05-18T16:31:21.730Z,10.97
2019-05-18T16:33:51.699Z,11.93
2019-05-18T16:36:20.887Z,12.57
2019-05-18T16:38:50.074Z,11.57
2019-05-18T16:41:19.246Z,11.00
2019-05-18T16:43:48.425Z,13.00
2019-05-18T16:46:17.590Z,40.53
2019-05-18T16:48:46.778Z,13.60
2019-05-18T16:51:15.958Z,13.07
2019-05-18T16:53:49.446Z,13.50
2019-05-18T16:56:16.357Z,13.23
2019-05-18T16:58:45.529Z,12.00
2019-05-18T17:01:14.836Z,14.67
2019-05-18T17:03:44.019Z,13.37
2019-05-18T17:06:16.301Z,13.97
2019-05-18T17:08:44.049Z,13.67
2019-05-18T17:11:13.229Z,15.60
2019-05-18T17:13:42.422Z,15.03
2019-05-18T17:16:11.605Z,15.43
2019-05-18T17:18:40.785Z,21.23
2019-05-18T17:21:09.985Z,18.47
2019-05-18T17:23:39.166Z,18.17
2019-05-18T17:26:08.350Z,16.13
2019-05-18T17:28:37.450Z,13.67
2019-05-18T17:31:06.714Z,15.77
2019-05-18T17:33:35.894Z,14.80
2019-05-18T17:36:05.094Z,15.00
2019-05-18T17:38:36.742Z,15.43
2019-05-18T17:41:05.946Z,13.70
2019-05-18T17:43:35.152Z,14.37
2019-05-18T17:46:04.313Z,13.57
2019-05-18T17:48:33.511Z,14.00
2019-05-18T17:51:02.758Z,13.53
2019-05-18T17:53:31.998Z,13.47
2019-05-18T17:56:01.165Z,13.93
2019-05-18T17:58:30.346Z,13.60
2019-05-18T18:00:59.476Z,13.30
2019-05-18T18:03:28.637Z,13.90
2019-05-18T18:05:57.822Z,12.93
2019-05-18T18:08:27.063Z,13.50
2019-05-18T18:10:56.277Z,12.97
2019-05-18T18:13:25.494Z,12.83
2019-05-18T18:15:54.691Z,12.97
2019-05-18T18:18:23.860Z,12.03
2019-05-18T18:20:53.052Z,12.17
2019-05-18T18:23:22.229Z,11.40
2019-05-18T18:25:51.412Z,12.53
2019-05-18T18:28:20.758Z,12.20
2019-05-18T18:30:49.946Z,13.07
2019-05-18T18:33:19.235Z,14.07
2019-05-18T18:35:48.402Z,13.47
2019-05-18T18:38:17.654Z,12.53
2019-05-18T18:40:46.934Z,13.33
2019-05-18T18:43:16.599Z,12.20
2019-05-18T18:45:45.690Z,13.37
2019-05-18T18:48:14.860Z,12.57
2019-05-18T18:50:44.095Z,12.37
2019-05-18T18:53:13.264Z,12.17
2019-05-18T18:55:42.431Z,13.97
2019-05-18T18:58:11.607Z,12.73
2019-05-18T19:00:40.777Z,12.23
2019-05-18T19:03:09.958Z,12.33
2019-05-18T19:05:39.159Z,10.87
2019-05-18T19:08:08.330Z,11.23
2019-05-18T19:10:37.521Z,11.10
2019-05-18T19:13:06.695Z,11.43
2019-05-18T19:15:35.888Z,10.50
2019-05-18T19:18:05.061Z,10.87
2019-05-18T19:20:34.255Z,9.83
2019-05-18T19:23:03.459Z,9.47
2019-05-18T19:25:32.646Z,10.20
2019-05-18T19:28:01.842Z,9.97
2019-05-18T19:30:31.025Z,9.37
2019-05-18T19:33:00.191Z,9.30
2019-05-18T19:35:29.399Z,10.97
2019-05-18T19:37:58.575Z,10.17
2019-05-18T19:40:27.750Z,10.23
2019-05-18T19:42:56.893Z,10.17
2019-05-18T19:45:26.070Z,10.80
2019-05-18T19:47:55.243Z,10.33
2019-05-18T19:50:24.433Z,10.43
2019-05-18T19:52:53.626Z,11.20
2019-05-18T19:55:22.806Z,11.07
2019-05-18T19:57:51.978Z,10.53
2019-05-18T20:00:21.243Z,9.90
2019-05-18T20:02:50.469Z,8.93
2019-05-18T20:05:19.870Z,8.77
2019-05-18T20:07:48.984Z,10.20
2019-05-18T20:10:18.415Z,9.87
2019-05-18T20:12:47.635Z,9.03
2019-05-18T20:15:17.122Z,10.13
2019-05-18T20:17:46.322Z,9.53
2019-05-18T20:20:15.478Z,9.90
2019-05-18T20:22:44.574Z,9.50
2019-05-18T20:25:13.674Z,9.60
2019-05-18T20:27:42.869Z,8.80
2019-05-18T20:30:12.086Z,9.10
2019-05-18T20:32:41.189Z,8.80
2019-05-18T20:35:10.362Z,7.70
2019-05-18T20:37:39.464Z,9.10
2019-05-18T20:40:08.641Z,8.93
2019-05-18T20:42:37.970Z,8.33
2019-05-18T20:45:07.422Z,8.97
2019-05-18T20:47:36.643Z,9.27
2019-05-18T20:50:05.834Z,8.70
2019-05-18T20:52:35.010Z,9.60
2019-05-18T20:55:05.546Z,8.80
2019-05-18T20:57:34.641Z,9.27
2019-05-18T21:00:03.874Z,8.60
2019-05-18T21:02:33.042Z,8.90
2019-05-18T21:05:02.240Z,8.07
2019-05-18T21:07:31.434Z,8.20
2019-05-18T21:10:00.647Z,9.50
2019-05-18T21:12:29.838Z,8.87
2019-05-18T21:14:59.009Z,8.93
2019-05-18T21:17:28.206Z,8.70
2019-05-18T21:19:57.402Z,8.67
2019-05-18T21:22:26.506Z,8.17
2019-05-18T21:24:55.690Z,8.40
2019-05-18T21:27:24.863Z,8.20
2019-05-18T21:29:54.053Z,7.33
2019-05-18T21:32:23.168Z,7.13
2019-05-18T21:34:52.323Z,6.27
2019-05-18T21:37:21.542Z,6.23
2019-05-18T21:39:50.706Z,6.20
2019-05-18T21:42:19.890Z,5.93
2019-05-18T21:44:49.254Z,5.53
2019-05-18T21:47:18.434Z,4.87
2019-05-18T21:49:47.594Z,4.90
2019-05-18T21:52:17.025Z,4.93
2019-05-18T21:54:46.146Z,4.63
2019-05-18T21:57:15.313Z,4.80
2019-05-18T21:59:44.505Z,5.03
2019-05-18T22:02:13.662Z,4.77
2019-05-18T22:04:42.762Z,4.90
2019-05-18T22:07:11.869Z,4.70
2019-05-18T22:09:41.049Z,4.87
2019-05-18T22:12:10.237Z,4.83
2019-05-18T22:14:39.402Z,5.10
2019-05-18T22:17:08.503Z,5.10
2019-05-18T22:19:37.681Z,5.33
2019-05-18T22:22:06.933Z,5.40
2019-05-18T22:24:36.034Z,5.53
2019-05-18T22:27:05.222Z,5.07
2019-05-18T22:29:34.390Z,5.40
2019-05-18T22:32:03.572Z,5.77
2019-05-18T22:34:32.745Z,5.43
2019-05-18T22:37:01.915Z,5.70
2019-05-18T22:39:31.102Z,5.93
2019-05-18T22:42:00.197Z,6.30
2019-05-18T22:44:29.362Z,6.30
2019-05-18T22:46:58.561Z,5.80
2019-05-18T22:49:27.729Z,5.63
2019-05-18T22:51:56.895Z,5.93
2019-05-18T22:54:26.105Z,6.17
2019-05-18T22:56:55.270Z,5.17
2019-05-18T22:59:24.446Z,5.30
2019-05-18T23:01:53.617Z,5.37
2019-05-18T23:04:22.785Z,5.33
2019-05-18T23:06:51.870Z,6.00
2019-05-18T23:09:21.061Z,6.10
2019-05-18T23:11:50.216Z,5.47
2019-05-18T23:14:19.437Z,5.40
2019-05-18T23:16:48.765Z,5.80
2019-05-18T23:19:18.049Z,5.93
2019-05-18T23:21:47.152Z,5.80
2019-05-18T23:24:16.509Z,6.23
2019-05-18T23:26:48.635Z,5.90
2019-05-18T23:29:17.810Z,6.97
2019-05-18T23:31:46.973Z,6.53
2019-05-18T23:34:16.070Z,7.20
2019-05-18T23:36:45.262Z,6.07
2019-05-18T23:39:14.602Z,6.33
2019-05-18T23:41:43.772Z,6.60
2019-05-18T23:44:12.967Z,6.90
2019-05-18T23:46:42.197Z,6.60
2019-05-18T23:49:11.454Z,6.73
2019-05-18T23:51:40.809Z,6.67
2019-05-18T23:54:10.151Z,6.40
2019-05-18T23:56:39.335Z,6.20
2019-05-18T23:59:08.522Z,6.70
